createdAt,value
2023-01-29T00:01:20.968Z,15.83
2023-01-29T00:03:51.006Z,16.23
2023-01-29T00:06:17.674Z,14.87
2023-01-29T00:08:45.367Z,17.37
2023-01-29T00:11:12.874Z,20.87
2023-01-29T00:13:39.539Z,11.50
2023-01-29T00:16:06.658Z,19.67
2023-01-29T00:18:33.271Z,23.47
2023-01-29T00:21:00.454Z,21.90
2023-01-29T00:23:27.427Z,19.60
2023-01-29T00:25:54.724Z,24.07
2023-01-29T00:28:21.660Z,18.93
2023-01-29T00:30:48.573Z,17.47
2023-01-29T00:33:15.214Z,17.87
2023-01-29T00:35:43.110Z,22.70
2023-01-29T00:38:10.107Z,16.87
2023-01-29T00:40:58.806Z,16.17
2023-01-29T00:43:44.691Z,18.17
2023-01-29T00:46:11.520Z,13.10
2023-01-29T00:48:38.184Z,22.07
2023-01-29T00:51:05.228Z,18.57
2023-01-29T00:53:31.887Z,13.73
2023-01-29T00:55:58.818Z,19.73
2023-01-29T00:58:27.634Z,17.73
2023-01-29T01:00:55.614Z,18.03
2023-01-29T01:03:22.294Z,23.90
2023-01-29T01:05:49.275Z,21.07
2023-01-29T01:08:34.282Z,23.17
2023-01-29T01:11:04.062Z,19.73
2023-01-29T01:13:33.501Z,21.63
2023-01-29T01:16:00.309Z,30.27
2023-01-29T01:18:30.168Z,21.07
2023-01-29T01:20:58.812Z,26.40
2023-01-29T01:23:25.639Z,30.33
2023-01-29T01:25:52.567Z,30.23
2023-01-29T01:28:19.205Z,30.37
2023-01-29T01:30:46.528Z,25.60
2023-01-29T01:33:13.328Z,25.97
2023-01-29T01:35:43.074Z,25.60
2023-01-29T01:38:12.225Z,27.80
2023-01-29T01:40:48.461Z,20.40
2023-01-29T01:43:17.252Z,31.37
2023-01-29T01:45:45.985Z,26.20
2023-01-29T01:48:16.828Z,27.53
2023-01-29T01:50:49.019Z,30.90
2023-01-29T01:53:21.622Z,25.77
2023-01-29T01:55:51.465Z,37.43
2023-01-29T01:58:23.823Z,25.83
2023-01-29T02:00:50.977Z,30.47
2023-01-29T02:03:39.479Z,30.47
2023-01-29T02:06:24.881Z,30.33
2023-01-29T02:09:13.473Z,24.83
2023-01-29T02:11:40.441Z,27.60
2023-01-29T02:14:07.676Z,33.60
2023-01-29T02:16:35.286Z,30.80
2023-01-29T02:19:04.946Z,27.90
2023-01-29T02:22:10.454Z,25.77
2023-01-29T02:25:11.764Z,29.53
2023-01-29T02:28:13.077Z,34.53
2023-01-29T02:30:44.705Z,30.93
2023-01-29T02:33:21.508Z,33.57
2023-01-29T02:35:58.172Z,26.13
2023-01-29T02:38:30.462Z,35.03
2023-01-29T02:41:01.348Z,26.13
2023-01-29T02:43:37.879Z,30.97
2023-01-29T02:46:17.489Z,27.63
2023-01-29T02:48:56.562Z,29.17
2023-01-29T02:51:35.278Z,26.83
2023-01-29T02:54:06.560Z,30.27
2023-01-29T02:56:39.777Z,30.40
2023-01-29T02:59:11.651Z,27.43
2023-01-29T03:01:44.631Z,36.87
2023-01-29T03:04:16.006Z,31.93
2023-01-29T03:06:48.695Z,30.53
2023-01-29T03:09:22.690Z,27.80
2023-01-29T03:11:54.255Z,27.77
2023-01-29T03:14:25.694Z,33.67
2023-01-29T03:16:53.664Z,37.37
2023-01-29T03:19:29.224Z,32.77
2023-01-29T03:22:01.257Z,37.87
2023-01-29T03:24:55.175Z,37.93
2023-01-29T03:27:44.119Z,29.10
2023-01-29T03:30:33.640Z,36.10
2023-01-29T03:33:06.202Z,35.43
2023-01-29T03:35:36.813Z,16.40
2023-01-29T03:38:05.334Z,31.40
2023-01-29T03:40:42.900Z,38.57
2023-01-29T03:43:14.640Z,30.87
2023-01-29T03:45:51.691Z,35.43
2023-01-29T03:48:28.446Z,35.27
2023-01-29T03:51:01.436Z,35.77
2023-01-29T03:53:36.789Z,24.00
2023-01-29T03:56:08.190Z,38.47
2023-01-29T03:58:39.684Z,39.67
2023-01-29T04:01:14.483Z,28.77
2023-01-29T04:03:46.420Z,34.53
2023-01-29T04:06:17.043Z,32.80
2023-01-29T04:08:49.531Z,29.73
2023-01-29T04:11:20.323Z,31.30
2023-01-29T04:13:47.360Z,30.77
2023-01-29T04:16:19.308Z,35.80
2023-01-29T04:18:47.389Z,38.40
2023-01-29T04:21:14.991Z,27.70
2023-01-29T04:23:42.844Z,32.33
2023-01-29T04:26:24.906Z,38.33
2023-01-29T04:29:06.322Z,30.50
2023-01-29T04:31:40.681Z,34.90
2023-01-29T04:34:21.380Z,27.83
2023-01-29T04:36:59.137Z,36.10
2023-01-29T04:39:32.623Z,27.90
2023-01-29T04:42:06.631Z,37.30
2023-01-29T04:44:41.286Z,30.00
2023-01-29T04:47:19.283Z,43.20
2023-01-29T04:49:49.226Z,41.53
2023-01-29T04:52:21.552Z,34.97
2023-01-29T04:54:58.016Z,27.30
2023-01-29T04:57:32.239Z,43.87
2023-01-29T05:00:06.947Z,44.10
2023-01-29T05:02:37.699Z,38.17
2023-01-29T05:05:05.519Z,33.60
2023-01-29T05:07:35.315Z,37.17
2023-01-29T05:10:03.237Z,43.80
2023-01-29T05:12:30.913Z,27.00
2023-01-29T05:15:02.448Z,33.23
2023-01-29T05:17:29.619Z,39.70
2023-01-29T05:19:57.266Z,35.70
2023-01-29T05:22:25.004Z,42.43
2023-01-29T05:24:51.723Z,47.47
2023-01-29T05:27:40.577Z,38.20
2023-01-29T05:30:09.598Z,55.97
2023-01-29T05:32:36.622Z,47.83
2023-01-29T05:35:04.621Z,44.00
2023-01-29T05:37:31.318Z,49.17
2023-01-29T05:39:57.962Z,49.43
2023-01-29T05:42:25.305Z,46.90
2023-01-29T05:44:52.005Z,51.10
2023-01-29T05:47:19.377Z,45.93
2023-01-29T05:49:46.296Z,52.13
2023-01-29T05:52:13.585Z,49.10
2023-01-29T05:54:40.210Z,45.93
2023-01-29T05:57:06.914Z,57.33
2023-01-29T05:59:33.577Z,54.70
2023-01-29T06:02:00.588Z,58.03
2023-01-29T06:04:27.535Z,57.53
2023-01-29T06:06:54.479Z,47.30
2023-01-29T06:09:21.824Z,53.73
2023-01-29T06:11:48.755Z,56.80
2023-01-29T06:14:15.529Z,60.00
2023-01-29T06:16:42.178Z,46.27
2023-01-29T06:19:08.859Z,50.07
2023-01-29T06:21:35.599Z,49.87
2023-01-29T06:24:02.334Z,49.17
2023-01-29T06:26:29.642Z,55.37
2023-01-29T06:28:56.593Z,60.63
2023-01-29T06:31:37.228Z,57.87
2023-01-29T06:34:04.321Z,50.27
2023-01-29T06:36:31.296Z,48.03
2023-01-29T06:38:57.995Z,55.13
2023-01-29T06:41:24.864Z,59.57
2023-01-29T06:43:52.225Z,61.33
2023-01-29T06:46:18.904Z,58.73
2023-01-29T06:48:45.870Z,39.50
2023-01-29T06:51:12.831Z,52.60
2023-01-29T06:53:40.096Z,49.10
2023-01-29T06:56:08.025Z,49.97
2023-01-29T06:58:36.841Z,55.20
2023-01-29T07:01:05.239Z,65.80
2023-01-29T07:03:32.275Z,54.03
2023-01-29T07:05:59.241Z,55.40
2023-01-29T07:08:25.951Z,65.37
2023-01-29T07:10:52.561Z,57.80
2023-01-29T07:13:19.264Z,54.93
2023-01-29T07:15:45.890Z,65.40
2023-01-29T07:18:13.227Z,57.47
2023-01-29T07:20:41.254Z,64.03
2023-01-29T07:23:10.575Z,55.67
2023-01-29T07:25:37.316Z,52.90
2023-01-29T07:28:04.400Z,56.17
2023-01-29T07:30:31.274Z,51.33
2023-01-29T07:33:01.699Z,56.00
2023-01-29T07:35:29.026Z,39.20
2023-01-29T07:37:55.977Z,69.10
2023-01-29T07:40:23.176Z,62.13
2023-01-29T07:42:49.809Z,67.90
2023-01-29T07:45:16.985Z,61.67
2023-01-29T07:47:43.625Z,67.00
2023-01-29T07:50:11.108Z,56.80
2023-01-29T07:52:38.456Z,69.77
2023-01-29T07:55:05.890Z,61.83
2023-01-29T07:57:32.846Z,66.30
2023-01-29T07:59:59.534Z,63.33
2023-01-29T08:02:26.512Z,78.40
2023-01-29T08:04:53.500Z,74.07
2023-01-29T08:07:20.170Z,55.17
2023-01-29T08:09:48.258Z,75.23
2023-01-29T08:12:15.002Z,57.97
2023-01-29T08:14:41.705Z,60.60
2023-01-29T08:17:13.177Z,49.93
2023-01-29T08:19:39.989Z,58.40
2023-01-29T08:22:06.751Z,62.03
2023-01-29T08:24:47.561Z,64.97
2023-01-29T08:27:20.937Z,57.07
2023-01-29T08:29:48.255Z,61.53
2023-01-29T08:32:15.007Z,70.77
2023-01-29T08:34:41.641Z,71.40
2023-01-29T08:37:08.282Z,61.37
2023-01-29T08:39:35.255Z,59.07
2023-01-29T08:42:02.248Z,64.40
2023-01-29T08:44:29.740Z,58.03
2023-01-29T08:46:57.543Z,71.37
2023-01-29T08:49:24.331Z,61.60
2023-01-29T08:51:51.094Z,58.63
2023-01-29T08:54:17.799Z,70.17
2023-01-29T08:56:45.078Z,77.53
2023-01-29T08:59:12.163Z,55.50
2023-01-29T09:01:39.653Z,69.37
2023-01-29T09:04:06.552Z,65.37
2023-01-29T09:06:33.484Z,71.20
2023-01-29T09:09:00.257Z,64.80
2023-01-29T09:11:27.244Z,69.60
2023-01-29T09:13:54.181Z,65.53
2023-01-29T09:16:21.004Z,63.57
2023-01-29T09:18:48.333Z,36.67
2023-01-29T09:21:15.294Z,62.67
2023-01-29T09:23:42.267Z,61.17
2023-01-29T09:26:08.975Z,69.50
2023-01-29T09:28:35.665Z,68.53
2023-01-29T09:31:03.197Z,61.87
2023-01-29T09:33:30.620Z,64.47
2023-01-29T09:35:58.080Z,63.83
2023-01-29T09:38:24.901Z,56.83
2023-01-29T09:40:58.007Z,67.10
2023-01-29T09:43:30.991Z,48.80
2023-01-29T09:46:01.426Z,59.13
2023-01-29T09:48:32.477Z,66.30
2023-01-29T09:51:04.858Z,59.03
2023-01-29T09:53:39.492Z,52.87
2023-01-29T09:56:12.252Z,52.77
2023-01-29T09:58:42.039Z,57.57
2023-01-29T10:01:16.483Z,54.20
2023-01-29T10:04:05.148Z,60.40
2023-01-29T10:06:50.214Z,49.10
2023-01-29T10:09:50.012Z,70.70
2023-01-29T10:12:42.360Z,60.10
2023-01-29T10:15:21.539Z,55.73
2023-01-29T10:18:01.877Z,42.00
2023-01-29T10:20:52.942Z,47.47
2023-01-29T10:23:24.802Z,41.27
2023-01-29T10:25:53.147Z,51.63
2023-01-29T10:28:23.797Z,54.60
2023-01-29T10:30:54.487Z,47.27
2023-01-29T10:33:31.039Z,43.90
2023-01-29T10:36:06.916Z,54.20
2023-01-29T10:38:43.140Z,58.60
2023-01-29T10:41:25.845Z,48.43
2023-01-29T10:44:04.672Z,40.17
2023-01-29T10:46:44.763Z,33.97
2023-01-29T10:49:23.573Z,42.30
2023-01-29T10:52:07.231Z,45.07
2023-01-29T10:54:49.828Z,27.90
2023-01-29T10:57:26.086Z,37.90
2023-01-29T11:00:06.452Z,42.90
2023-01-29T11:02:34.031Z,39.00
2023-01-29T11:05:00.712Z,44.23
2023-01-29T11:07:27.830Z,47.10
2023-01-29T11:10:02.291Z,41.70
2023-01-29T11:12:31.444Z,37.83
2023-01-29T11:15:02.771Z,30.00
2023-01-29T11:17:29.474Z,39.00
2023-01-29T11:19:56.184Z,36.10
2023-01-29T11:22:24.123Z,42.33
2023-01-29T11:25:10.372Z,35.30
2023-01-29T11:27:43.888Z,39.30
2023-01-29T11:30:19.660Z,34.47
2023-01-29T11:32:51.392Z,30.77
2023-01-29T11:35:23.281Z,22.40
2023-01-29T11:37:49.992Z,37.93
2023-01-29T11:40:36.170Z,33.67
2023-01-29T11:43:17.522Z,28.77
2023-01-29T11:45:45.109Z,28.77
2023-01-29T11:48:15.752Z,25.37
2023-01-29T11:50:43.279Z,25.80
2023-01-29T11:53:33.838Z,31.57
2023-01-29T11:56:03.834Z,27.47
2023-01-29T11:58:32.593Z,30.47
2023-01-29T12:01:00.443Z,33.57
2023-01-29T12:03:34.943Z,21.90
2023-01-29T12:06:03.654Z,28.73
2023-01-29T12:08:36.040Z,33.37
2023-01-29T12:11:12.599Z,23.43
2023-01-29T12:13:42.474Z,32.13
2023-01-29T12:16:22.496Z,30.57
2023-01-29T12:18:54.068Z,31.73
2023-01-29T12:21:29.898Z,31.60
2023-01-29T12:24:01.856Z,27.13
2023-01-29T12:26:33.228Z,40.40
2023-01-29T12:29:17.313Z,29.97
2023-01-29T12:31:49.807Z,29.43
2023-01-29T12:34:21.050Z,24.90
2023-01-29T12:36:52.838Z,26.33
2023-01-29T12:39:20.532Z,28.60
2023-01-29T12:41:52.301Z,33.10
2023-01-29T12:44:23.765Z,29.20
2023-01-29T12:46:54.155Z,38.57
2023-01-29T12:49:26.154Z,29.00
2023-01-29T12:51:58.948Z,29.63
2023-01-29T12:54:33.854Z,37.67
2023-01-29T12:57:07.721Z,14.80
2023-01-29T12:59:42.019Z,31.00
2023-01-29T13:02:19.443Z,28.43
2023-01-29T13:04:50.432Z,22.90
2023-01-29T13:07:23.210Z,25.47
2023-01-29T13:09:53.905Z,24.23
2023-01-29T13:12:22.903Z,37.70
2023-01-29T13:14:54.537Z,34.07
2023-01-29T13:17:26.237Z,33.03
2023-01-29T13:19:56.527Z,28.10
2023-01-29T13:22:25.667Z,30.43
2023-01-29T13:25:04.280Z,29.93
2023-01-29T13:27:34.383Z,32.17
2023-01-29T13:30:01.561Z,33.57
2023-01-29T13:32:30.438Z,37.10
2023-01-29T13:35:00.539Z,27.07
2023-01-29T13:37:32.704Z,33.20
2023-01-29T13:40:01.205Z,31.37
2023-01-29T13:42:40.141Z,34.20
2023-01-29T13:45:09.501Z,28.13
2023-01-29T13:47:38.541Z,28.63
2023-01-29T13:50:07.831Z,32.23
2023-01-29T13:52:40.152Z,32.43
2023-01-29T13:55:20.497Z,32.03
2023-01-29T13:57:55.873Z,27.97
2023-01-29T14:01:00.366Z,32.87
2023-01-29T14:04:07.823Z,28.33
2023-01-29T14:06:44.879Z,31.33
2023-01-29T14:09:34.455Z,29.03
2023-01-29T14:12:01.385Z,31.23
2023-01-29T14:14:50.931Z,29.17
2023-01-29T14:17:19.025Z,18.77
2023-01-29T14:19:48.546Z,35.10
2023-01-29T14:22:21.114Z,37.13
2023-01-29T14:24:48.520Z,41.63
2023-01-29T14:27:21.206Z,34.70
2023-01-29T14:29:51.035Z,32.30
2023-01-29T14:32:21.522Z,44.67
2023-01-29T14:34:50.792Z,40.53
2023-01-29T14:37:25.848Z,48.20
2023-01-29T14:39:55.424Z,41.40
2023-01-29T14:42:25.603Z,43.97
2023-01-29T14:45:06.873Z,43.27
2023-01-29T14:47:53.927Z,46.77
2023-01-29T14:50:48.316Z,37.13
2023-01-29T14:53:24.221Z,38.87
2023-01-29T14:55:55.939Z,47.37
2023-01-29T14:58:27.773Z,51.57
2023-01-29T15:00:57.227Z,42.80
2023-01-29T15:03:33.388Z,39.80
2023-01-29T15:06:00.583Z,41.03
2023-01-29T15:08:32.632Z,43.23
2023-01-29T15:11:24.965Z,55.60
2023-01-29T15:13:56.743Z,44.70
2023-01-29T15:16:27.764Z,36.67
2023-01-29T15:19:04.001Z,41.93
2023-01-29T15:21:31.514Z,46.17
2023-01-29T15:24:05.284Z,41.03
2023-01-29T15:26:32.634Z,39.63
2023-01-29T15:29:04.915Z,36.07
2023-01-29T15:31:32.683Z,51.80
2023-01-29T15:34:05.934Z,52.73
2023-01-29T15:36:33.283Z,43.80
2023-01-29T15:39:16.711Z,54.70
2023-01-29T15:41:43.862Z,49.13
2023-01-29T15:44:15.661Z,38.77
2023-01-29T15:46:44.221Z,44.40
2023-01-29T15:49:19.038Z,45.60
2023-01-29T15:51:47.250Z,48.40
2023-01-29T15:54:16.558Z,45.53
2023-01-29T15:56:46.746Z,40.30
2023-01-29T15:59:18.423Z,29.10
2023-01-29T16:01:45.704Z,45.20
2023-01-29T16:04:16.595Z,36.70
2023-01-29T16:06:44.817Z,35.30
2023-01-29T16:09:18.055Z,21.07
2023-01-29T16:11:46.147Z,38.43
2023-01-29T16:14:16.833Z,44.97
2023-01-29T16:16:44.718Z,40.83
2023-01-29T16:19:21.030Z,32.83
2023-01-29T16:21:54.576Z,39.73
2023-01-29T16:24:24.562Z,42.40
2023-01-29T16:26:56.293Z,45.03
2023-01-29T16:29:28.802Z,44.50
2023-01-29T16:32:01.018Z,43.70
2023-01-29T16:34:32.414Z,43.30
2023-01-29T16:37:01.253Z,45.87
2023-01-29T16:39:32.302Z,46.57
2023-01-29T16:42:26.052Z,46.63
2023-01-29T16:44:55.640Z,56.00
2023-01-29T16:47:33.731Z,55.17
2023-01-29T16:50:03.412Z,45.70
2023-01-29T16:52:31.963Z,53.07
2023-01-29T16:55:15.842Z,49.73
2023-01-29T16:57:47.747Z,49.47
2023-01-29T17:00:21.813Z,49.87
2023-01-29T17:02:52.166Z,40.60
2023-01-29T17:05:22.527Z,45.60
2023-01-29T17:07:49.715Z,48.10
2023-01-29T17:10:18.667Z,44.27
2023-01-29T17:12:53.822Z,43.47
2023-01-29T17:15:35.519Z,40.27
2023-01-29T17:18:02.906Z,43.07
2023-01-29T17:20:31.464Z,57.53
2023-01-29T17:22:58.186Z,40.00
2023-01-29T17:25:25.036Z,39.93
2023-01-29T17:27:52.043Z,41.43
2023-01-29T17:30:20.593Z,33.10
2023-01-29T17:32:47.661Z,33.40
2023-01-29T17:35:16.559Z,30.80
2023-01-29T17:37:44.343Z,36.67
2023-01-29T17:40:26.938Z,36.10
2023-01-29T17:42:53.623Z,50.87
2023-01-29T17:45:20.452Z,45.20
2023-01-29T17:47:47.185Z,45.03
2023-01-29T17:50:20.909Z,59.70
2023-01-29T17:52:48.381Z,44.47
2023-01-29T17:55:15.379Z,38.60
2023-01-29T17:57:42.287Z,48.40
2023-01-29T18:00:16.632Z,45.03
2023-01-29T18:02:43.567Z,35.53
2023-01-29T18:05:10.770Z,45.40
2023-01-29T18:07:38.555Z,38.30
2023-01-29T18:10:11.440Z,44.50
2023-01-29T18:12:38.390Z,30.27
2023-01-29T18:15:06.022Z,38.63
2023-01-29T18:17:32.823Z,43.50
2023-01-29T18:19:59.484Z,53.73
2023-01-29T18:22:26.209Z,31.83
2023-01-29T18:24:52.853Z,34.30
2023-01-29T18:27:20.229Z,32.47
2023-01-29T18:29:49.348Z,40.37
2023-01-29T18:32:16.049Z,40.83
2023-01-29T18:34:43.095Z,20.60
2023-01-29T18:37:12.131Z,38.23
2023-01-29T18:39:39.669Z,37.90
2023-01-29T18:42:06.625Z,28.30
2023-01-29T18:44:34.044Z,47.63
2023-01-29T18:47:00.696Z,22.00
2023-01-29T18:49:27.606Z,36.07
2023-01-29T18:51:54.267Z,38.33
2023-01-29T18:54:21.239Z,44.90
2023-01-29T18:57:06.303Z,36.20
2023-01-29T18:59:35.365Z,23.83
2023-01-29T19:02:02.840Z,30.83
2023-01-29T19:04:29.603Z,38.00
2023-01-29T19:06:56.568Z,37.97
2023-01-29T19:09:23.268Z,32.83
2023-01-29T19:11:50.216Z,33.20
2023-01-29T19:14:16.947Z,40.73
2023-01-29T19:16:44.453Z,34.60
2023-01-29T19:19:11.441Z,20.53
2023-01-29T19:21:38.737Z,33.70
2023-01-29T19:24:09.336Z,34.27
2023-01-29T19:26:36.271Z,30.13
2023-01-29T19:29:03.648Z,21.93
2023-01-29T19:31:32.012Z,35.10
2023-01-29T19:33:59.515Z,31.80
2023-01-29T19:36:26.255Z,19.73
2023-01-29T19:38:52.977Z,39.33
2023-01-29T19:41:19.693Z,31.03
2023-01-29T19:43:47.522Z,36.53
2023-01-29T19:46:14.562Z,34.90
2023-01-29T19:48:41.309Z,31.97
2023-01-29T19:51:10.248Z,32.57
2023-01-29T19:53:38.433Z,18.60
2023-01-29T19:56:07.336Z,30.17
2023-01-29T19:58:35.395Z,29.17
2023-01-29T20:01:04.946Z,27.40
2023-01-29T20:03:32.197Z,33.47
2023-01-29T20:06:02.554Z,28.13
2023-01-29T20:08:30.378Z,31.07
2023-01-29T20:10:57.185Z,32.43
2023-01-29T20:13:24.412Z,26.73
2023-01-29T20:15:52.192Z,30.70
2023-01-29T20:18:20.539Z,36.57
2023-01-29T20:20:49.418Z,27.47
2023-01-29T20:23:31.784Z,24.83
2023-01-29T20:26:04.914Z,29.70
2023-01-29T20:28:32.903Z,30.07
2023-01-29T20:30:59.753Z,21.90
2023-01-29T20:33:27.027Z,22.80
2023-01-29T20:35:54.916Z,21.63
2023-01-29T20:38:22.044Z,26.03
2023-01-29T20:40:48.972Z,23.60
2023-01-29T20:43:16.762Z,26.07
2023-01-29T20:45:43.979Z,20.40
2023-01-29T20:48:10.758Z,20.07
2023-01-29T20:50:37.485Z,25.27
2023-01-29T20:53:04.286Z,28.20
2023-01-29T20:55:31.365Z,26.23
2023-01-29T20:58:06.487Z,25.07
2023-01-29T21:00:34.188Z,22.97
2023-01-29T21:03:01.204Z,27.97
2023-01-29T21:05:27.843Z,25.77
2023-01-29T21:07:54.797Z,17.23
2023-01-29T21:10:21.803Z,15.77
2023-01-29T21:12:48.429Z,24.40
2023-01-29T21:15:15.186Z,25.03
2023-01-29T21:17:42.924Z,22.47
2023-01-29T21:20:10.597Z,16.27
2023-01-29T21:22:37.730Z,25.63
2023-01-29T21:25:05.049Z,25.27
2023-01-29T21:27:31.732Z,26.57
2023-01-29T21:29:58.399Z,20.47
2023-01-29T21:32:27.285Z,20.70
2023-01-29T21:34:54.724Z,25.90
2023-01-29T21:37:21.397Z,35.23
2023-01-29T21:39:48.107Z,21.67
2023-01-29T21:42:33.544Z,26.00
2023-01-29T21:45:00.187Z,19.30
2023-01-29T21:47:26.877Z,21.13
2023-01-29T21:49:54.224Z,21.63
2023-01-29T21:52:21.131Z,28.67
2023-01-29T21:54:48.325Z,20.47
2023-01-29T21:57:16.470Z,20.03
2023-01-29T21:59:43.647Z,15.47
2023-01-29T22:02:17.303Z,17.80
2023-01-29T22:04:44.043Z,18.17
2023-01-29T22:07:13.579Z,14.87
2023-01-29T22:09:41.852Z,26.93
2023-01-29T22:12:08.783Z,28.40
2023-01-29T22:14:35.753Z,14.00
2023-01-29T22:17:02.562Z,20.97
2023-01-29T22:19:30.594Z,20.00
2023-01-29T22:21:57.643Z,26.17
2023-01-29T22:24:25.074Z,29.73
2023-01-29T22:26:51.736Z,21.70
2023-01-29T22:29:18.853Z,29.07
2023-01-29T22:31:45.787Z,23.67
2023-01-29T22:34:13.922Z,24.90
2023-01-29T22:36:41.059Z,24.93
2023-01-29T22:39:08.245Z,23.07
2023-01-29T22:41:35.957Z,25.77
2023-01-29T22:44:03.031Z,27.23
2023-01-29T22:46:30.178Z,14.03
2023-01-29T22:48:56.974Z,23.77
2023-01-29T22:51:23.974Z,28.67
2023-01-29T22:53:54.008Z,27.40
2023-01-29T22:56:24.520Z,23.67
2023-01-29T22:58:52.262Z,23.87
2023-01-29T23:01:19.745Z,27.20
2023-01-29T23:03:46.496Z,23.40
2023-01-29T23:06:13.164Z,23.30
2023-01-29T23:08:39.846Z,19.57
2023-01-29T23:11:13.428Z,25.77
2023-01-29T23:13:40.978Z,15.33
2023-01-29T23:16:08.621Z,26.33
2023-01-29T23:18:35.506Z,23.27
2023-01-29T23:21:02.311Z,18.67
2023-01-29T23:23:29.373Z,24.70
2023-01-29T23:26:15.578Z,20.47
2023-01-29T23:28:42.708Z,26.37
2023-01-29T23:31:10.142Z,27.23
2023-01-29T23:33:36.903Z,19.33
2023-01-29T23:36:04.001Z,22.33
2023-01-29T23:38:30.641Z,20.23
2023-01-29T23:40:57.479Z,19.73
2023-01-29T23:43:24.738Z,19.67
2023-01-29T23:45:51.612Z,19.40
2023-01-29T23:48:19.667Z,24.90
2023-01-29T23:50:46.674Z,22.47
2023-01-29T23:53:13.768Z,23.93
2023-01-29T23:55:40.467Z,24.40
2023-01-29T23:58:07.589Z,21.13
